Foraker, Indiana
Current Conditions -  °F | °C
As of 3:53 AM on Saturday 20 Dec 2014 (Local Time) from KGSH Reporting Station
Haze Haze  
Wind Chill: 25°   Ceiling: 3100
Heat Index: 25°   Visibility: 5mi
Dew Point: 23°   Wind: 3mph
Humidity: 92%   Direction: 130°SE
Pressure: 30.27"   Gusts: NA
Location:  41.5799°N, 85.8299°W
Report Text: KGSH 200853Z AUTO 13003KT 5SM BR BKN031 M04/M05 A3027 RMK AO2 SLP259 T10391050 53004
Loading
Personal Weather Stations






























Interactive Weather Map New forecast layout! Learn more

10-Day Weather Forecast

Advertisements
Track Severe Weather on mobile